Time;durP1;ratioP1;P1;durP2;ratioP2;P2;SDS_P1;SDS_P2;PMS_P1;PMS_P2;Temp;Humidity;BMP_temperature;BMP_pressure;BME280_temperature;BME280_humidity;BME280_pressure;Samples;Min_cycle;Max_cycle;Signal;HPM_P1;HPM_P2
2024/01/29 00:01:57;;;;;;;6.50;5.10;;;-0.20;99.90;;;;;;4980377;28;20233;-82
2024/01/29 00:04:24;;;;;;;2.53;2.42;;;-0.10;99.90;;;;;;4971490;28;20279;-83
2024/01/29 00:06:51;;;;;;;1.50;1.38;;;-0.20;99.90;;;;;;4978935;28;20206;-81
2024/01/29 00:09:20;;;;;;;10.60;4.97;;;-0.10;99.90;;;;;;4957169;28;20210;-81
2024/01/29 00:11:47;;;;;;;4.32;3.92;;;-0.20;99.90;;;;;;4973338;28;20239;-80
2024/01/29 00:14:14;;;;;;;4.72;4.32;;;-0.20;99.90;;;;;;4964479;28;20220;-83
2024/01/29 00:16:41;;;;;;;26.75;4.78;;;-0.10;99.90;;;;;;4965573;28;20228;-81
2024/01/29 00:19:08;;;;;;;1.75;1.65;;;-0.20;99.90;;;;;;4969597;28;20320;-81
2024/01/29 00:21:35;;;;;;;1.13;1.13;;;-0.20;99.90;;;;;;4988035;28;20246;-84
2024/01/29 00:24:02;;;;;;;4.50;4.10;;;-0.40;99.90;;;;;;4981806;28;20195;-83
2024/01/29 00:26:29;;;;;;;1.67;1.58;;;-0.30;99.90;;;;;;4976554;28;20218;-81
2024/01/29 00:28:56;;;;;;;22.90;5.93;;;-0.40;99.90;;;;;;4988195;28;20237;-82
2024/01/29 00:31:23;;;;;;;17.25;5.93;;;-0.60;99.90;;;;;;4981902;28;20247;-79
2024/01/29 00:33:52;;;;;;;3.78;3.58;;;-0.40;99.90;;;;;;4947126;28;20278;-83
2024/01/29 00:36:19;;;;;;;17.23;5.95;;;-0.40;99.90;;;;;;4981161;28;20222;-82
2024/01/29 00:38:46;;;;;;;3.65;3.45;;;-0.40;99.90;;;;;;4969978;28;20282;-81
2024/01/29 00:41:13;;;;;;;6.60;5.00;;;-0.50;99.90;;;;;;4975565;28;20236;-83
2024/01/29 00:43:40;;;;;;;5.45;5.03;;;-0.60;99.90;;;;;;4973842;28;20211;-82
2024/01/29 00:46:07;;;;;;;7.40;4.32;;;-0.50;99.90;;;;;;4970047;28;20574;-82
2024/01/29 00:48:34;;;;;;;6.80;4.35;;;-0.40;99.90;;;;;;4973526;28;20287;-84
2024/01/29 00:51:02;;;;;;;3.28;3.15;;;-0.50;99.90;;;;;;4958374;28;20211;-81
2024/01/29 00:53:29;;;;;;;3.13;2.97;;;-0.50;99.90;;;;;;4976155;28;20563;-84
2024/01/29 00:55:58;;;;;;;3.50;3.30;;;-0.60;99.90;;;;;;4968797;28;20199;-80
2024/01/29 00:58:24;;;;;;;3.47;2.70;;;-0.40;99.90;;;;;;4974706;28;20447;-81
2024/01/29 01:00:52;;;;;;;4.93;4.60;;;-0.60;99.90;;;;;;4970437;28;20448;-81
2024/01/29 01:03:19;;;;;;;4.60;4.40;;;-0.40;99.90;;;;;;4968859;28;20214;-81
2024/01/29 01:05:46;;;;;;;3.65;3.45;;;-0.60;99.90;;;;;;4973736;28;20225;-81
2024/01/29 01:08:14;;;;;;;3.22;3.08;;;-0.60;99.90;;;;;;4981785;28;20208;-83
2024/01/29 01:10:41;;;;;;;3.47;3.28;;;-0.70;99.90;;;;;;4981761;28;20561;-82
2024/01/29 01:13:08;;;;;;;3.15;2.80;;;-0.60;99.90;;;;;;4974758;28;20236;-82
2024/01/29 01:15:35;;;;;;;25.50;2.45;;;-0.70;99.90;;;;;;4985250;28;20210;-81
2024/01/29 01:18:03;;;;;;;2.25;2.15;;;-0.60;99.90;;;;;;4974926;28;20250;-82
2024/01/29 01:20:30;;;;;;;4.00;3.78;;;-0.70;99.90;;;;;;4971937;28;20239;-80
2024/01/29 01:22:57;;;;;;;3.30;3.13;;;-0.60;99.90;;;;;;4954628;28;20231;-82
2024/01/29 01:25:24;;;;;;;4.20;3.53;;;-0.40;99.90;;;;;;4977771;28;20249;-82
2024/01/29 01:27:53;;;;;;;8.63;5.55;;;-0.70;99.90;;;;;;4984857;28;20234;-84
2024/01/29 01:30:21;;;;;;;4.10;3.60;;;-0.70;99.90;;;;;;4971931;28;20207;-84
2024/01/29 01:32:50;;;;;;;4.68;4.38;;;-0.70;99.90;;;;;;4974253;28;20235;-82
2024/01/29 01:35:17;;;;;;;2.63;2.45;;;-0.70;99.90;;;;;;4981316;28;20216;-81
2024/01/29 01:37:46;;;;;;;5.30;4.95;;;-0.70;99.90;;;;;;4982105;28;20246;-82
2024/01/29 01:40:13;;;;;;;2.58;2.40;;;-0.60;99.90;;;;;;4970084;28;20274;-82
2024/01/29 01:42:44;;;;;;;4.75;2.97;;;-0.80;99.90;;;;;;4984226;28;20211;-82
2024/01/29 01:45:11;;;;;;;1.95;1.88;;;-0.80;99.90;;;;;;4982205;28;20419;-81
2024/01/29 01:47:40;;;;;;;4.70;4.30;;;-0.70;99.90;;;;;;4981453;28;20202;-82
2024/01/29 01:50:09;;;;;;;2.80;2.58;;;-0.70;99.90;;;;;;4982743;28;20206;-83
2024/01/29 01:52:38;;;;;;;5.97;4.57;;;-0.70;99.90;;;;;;4966727;28;20367;-81
2024/01/29 01:55:06;;;;;;;4.10;3.65;;;-0.60;99.90;;;;;;4990359;28;20218;-81
2024/01/29 01:57:39;;;;;;;2.58;2.45;;;-0.70;99.90;;;;;;4967238;28;20211;-80
2024/01/29 02:00:07;;;;;;;1.05;1.05;;;-0.90;99.90;;;;;;4965727;28;20241;-80
2024/01/29 02:02:35;;;;;;;4.05;3.13;;;-0.70;99.90;;;;;;4954275;28;20211;-81
2024/01/29 02:05:02;;;;;;;5.68;4.97;;;-0.80;99.90;;;;;;4972499;28;20259;-82
2024/01/29 02:07:30;;;;;;;2.08;2.00;;;-0.70;99.90;;;;;;4952337;28;20242;-82
2024/01/29 02:09:57;;;;;;;5.70;4.70;;;-0.80;99.90;;;;;;4963049;28;20242;-81
2024/01/29 02:12:25;;;;;;;2.85;2.65;;;-0.80;99.90;;;;;;4974462;28;20221;-84
2024/01/29 02:14:52;;;;;;;2.47;2.15;;;-0.70;99.90;;;;;;4960765;28;20522;-81
2024/01/29 02:17:19;;;;;;;4.20;3.90;;;-0.70;99.90;;;;;;4976645;28;20223;-82
2024/01/29 02:19:46;;;;;;;4.78;3.63;;;-0.70;99.90;;;;;;4979903;28;20392;-84
2024/01/29 02:22:13;;;;;;;4.55;4.20;;;-0.70;99.90;;;;;;4956478;28;20213;-82
2024/01/29 02:24:40;;;;;;;10.82;3.92;;;-0.80;99.90;;;;;;4979003;28;20207;-82
2024/01/29 02:27:07;;;;;;;3.20;3.10;;;-0.60;99.90;;;;;;4955989;28;20246;-81
2024/01/29 02:29:33;;;;;;;6.05;5.75;;;-0.70;99.90;;;;;;4964708;28;20212;-80
2024/01/29 02:32:01;;;;;;;3.38;3.17;;;-0.60;99.90;;;;;;4982067;28;20218;-82
2024/01/29 02:34:27;;;;;;;5.07;4.07;;;-0.60;99.90;;;;;;4949842;28;20200;-82
2024/01/29 02:36:55;;;;;;;1.23;1.23;;;-0.70;99.90;;;;;;4969207;28;20408;-81
2024/01/29 02:39:22;;;;;;;13.25;4.80;;;-0.80;99.90;;;;;;4972386;28;20270;-81
2024/01/29 02:41:49;;;;;;;17.20;3.70;;;-0.80;99.90;;;;;;4980525;28;20459;-81
2024/01/29 02:44:16;;;;;;;10.73;3.40;;;-0.70;99.90;;;;;;4948208;28;20267;-82
2024/01/29 02:46:43;;;;;;;2.20;2.10;;;-0.80;99.90;;;;;;4971109;28;20243;-83
2024/01/29 02:49:10;;;;;;;9.25;3.83;;;-0.70;99.90;;;;;;4980073;28;20199;-82
2024/01/29 02:51:37;;;;;;;5.90;5.03;;;-0.90;99.90;;;;;;4972087;28;20250;-82
2024/01/29 02:54:04;;;;;;;6.18;3.40;;;-0.70;99.90;;;;;;4968282;28;20207;-82
2024/01/29 02:56:31;;;;;;;11.20;3.03;;;-0.70;99.90;;;;;;4969995;28;20345;-79
2024/01/29 02:58:58;;;;;;;5.80;5.43;;;-0.60;99.90;;;;;;4953048;28;20258;-84
2024/01/29 03:01:25;;;;;;;2.67;2.45;;;-0.60;99.90;;;;;;4973473;28;20231;-83
2024/01/29 03:03:52;;;;;;;3.88;2.78;;;-0.70;99.90;;;;;;4955685;28;20218;-81
2024/01/29 03:06:19;;;;;;;3.45;3.17;;;-0.60;99.90;;;;;;4964997;28;20207;-82
2024/01/29 03:08:49;;;;;;;9.70;4.30;;;-0.60;99.90;;;;;;4980966;28;20395;-81
2024/01/29 03:11:16;;;;;;;2.35;2.20;;;-0.60;99.90;;;;;;4971379;28;20474;-81
2024/01/29 03:13:43;;;;;;;2.40;2.30;;;-0.50;99.90;;;;;;4971013;28;20225;-82
2024/01/29 03:16:10;;;;;;;2.15;2.05;;;-0.50;99.90;;;;;;4971922;28;20270;-87
2024/01/29 03:18:37;;;;;;;2.92;2.72;;;-0.60;99.90;;;;;;4968936;28;20231;-82
2024/01/29 03:21:05;;;;;;;3.85;2.40;;;-0.50;99.90;;;;;;4953778;28;20235;-82
2024/01/29 03:23:32;;;;;;;2.33;2.22;;;-0.50;99.90;;;;;;4975173;28;20203;-83
2024/01/29 03:25:59;;;;;;;5.50;5.15;;;-0.50;99.90;;;;;;4975288;28;20208;-82
2024/01/29 03:28:26;;;;;;;3.03;2.78;;;-0.70;99.90;;;;;;4979901;28;20212;-83
2024/01/29 03:30:53;;;;;;;4.15;3.58;;;-0.80;99.90;;;;;;4975864;28;20529;-81
2024/01/29 03:33:20;;;;;;;6.18;3.35;;;-0.60;99.90;;;;;;4988239;28;20532;-81
2024/01/29 03:35:47;;;;;;;2.65;2.55;;;-0.70;99.90;;;;;;4970418;28;20209;-83
2024/01/29 03:38:14;;;;;;;1.20;1.20;;;-0.60;99.90;;;;;;4975809;28;20242;-83
2024/01/29 03:40:41;;;;;;;2.58;2.20;;;-0.80;99.90;;;;;;4972210;28;20234;-80
2024/01/29 03:43:08;;;;;;;1.65;1.58;;;-0.70;99.90;;;;;;4973983;28;20427;-81
2024/01/29 03:45:35;;;;;;;2.78;2.58;;;-0.70;99.90;;;;;;4950333;28;20474;-81
2024/01/29 03:48:03;;;;;;;3.25;2.90;;;-0.70;99.90;;;;;;4969970;28;20214;-80
2024/01/29 03:50:30;;;;;;;3.63;2.08;;;-0.70;99.90;;;;;;4953692;28;20953;-82
2024/01/29 03:52:56;;;;;;;19.27;2.63;;;-0.70;99.90;;;;;;4970146;28;20213;-83
2024/01/29 03:55:23;;;;;;;1.08;1.08;;;-0.70;99.90;;;;;;4966002;28;20242;-82
2024/01/29 03:57:50;;;;;;;2.90;2.75;;;-0.60;99.90;;;;;;4957921;28;20210;-82
2024/01/29 04:00:18;;;;;;;2.83;2.72;;;-0.60;99.90;;;;;;4971639;28;20226;-85
2024/01/29 04:02:46;;;;;;;2.05;1.95;;;-0.60;99.90;;;;;;4976825;28;20199;-84
2024/01/29 04:05:13;;;;;;;1.58;1.48;;;-0.70;99.90;;;;;;4964520;28;20534;-81
2024/01/29 04:07:41;;;;;;;2.22;2.13;;;-0.60;99.90;;;;;;4974370;28;20242;-82
2024/01/29 04:10:08;;;;;;;2.97;2.78;;;-0.60;99.90;;;;;;4975775;28;20381;-82
2024/01/29 04:12:35;;;;;;;2.05;1.95;;;-0.80;99.90;;;;;;4978948;28;20206;-81
2024/01/29 04:15:03;;;;;;;4.05;3.85;;;-0.90;99.90;;;;;;4959348;28;20504;-83
2024/01/29 04:17:31;;;;;;;4.22;3.92;;;-0.90;99.90;;;;;;4970137;28;20206;-83
2024/01/29 04:19:59;;;;;;;9.30;4.15;;;-0.80;99.90;;;;;;4974560;28;20199;-82
2024/01/29 04:22:26;;;;;;;5.07;4.78;;;-0.90;99.90;;;;;;4964641;28;20222;-80
2024/01/29 04:24:53;;;;;;;2.55;2.35;;;-0.80;99.90;;;;;;4984645;28;20305;-84
2024/01/29 04:27:20;;;;;;;3.15;2.85;;;-0.80;99.90;;;;;;4976312;28;20416;-82
2024/01/29 04:29:47;;;;;;;5.45;5.03;;;-0.90;99.90;;;;;;4971322;28;20526;-82
2024/01/29 04:32:14;;;;;;;2.50;2.40;;;-0.90;99.90;;;;;;4993412;28;20202;-82
2024/01/29 04:34:42;;;;;;;7.97;6.45;;;-1.00;99.90;;;;;;4968402;28;20639;-82
2024/01/29 04:37:09;;;;;;;5.00;3.70;;;-1.00;99.90;;;;;;4977091;28;20221;-82
2024/01/29 04:39:38;;;;;;;4.07;3.88;;;-0.80;99.90;;;;;;4980271;28;20539;-80
2024/01/29 04:42:06;;;;;;;4.10;3.80;;;-0.90;99.90;;;;;;4975991;28;20238;-82
2024/01/29 04:44:33;;;;;;;5.20;4.75;;;-0.80;99.90;;;;;;4984764;28;20250;-82
2024/01/29 04:47:00;;;;;;;2.15;2.00;;;-1.00;99.90;;;;;;4981045;28;20199;-82
2024/01/29 04:49:27;;;;;;;3.75;3.58;;;-1.10;99.90;;;;;;4977749;28;20215;-79
2024/01/29 04:51:54;;;;;;;3.47;3.33;;;-0.90;99.90;;;;;;4978144;28;20586;-80
2024/01/29 04:54:21;;;;;;;4.00;3.70;;;-1.00;99.90;;;;;;4973885;28;20285;-79
2024/01/29 04:56:48;;;;;;;2.33;2.22;;;-0.90;99.90;;;;;;4981041;28;20206;-83
2024/01/29 04:59:15;;;;;;;5.45;2.47;;;-0.90;99.90;;;;;;4956933;28;20242;-82
2024/01/29 05:01:42;;;;;;;8.82;6.75;;;-0.90;99.90;;;;;;4974234;28;20230;-83
2024/01/29 05:04:09;;;;;;;7.28;5.50;;;-0.80;99.90;;;;;;4980254;28;20203;-83
2024/01/29 05:06:38;;;;;;;7.90;7.10;;;-0.90;99.90;;;;;;4953976;28;20626;-85
2024/01/29 05:09:09;;;;;;;4.32;2.53;;;-0.90;99.90;;;;;;4959707;28;20226;-83
2024/01/29 05:11:40;;;;;;;4.03;3.83;;;-1.00;99.90;;;;;;4982429;28;20255;-81
2024/01/29 05:14:11;;;;;;;9.05;3.92;;;-1.10;99.90;;;;;;4982493;28;20207;-83
2024/01/29 05:16:41;;;;;;;3.92;3.50;;;-0.90;99.90;;;;;;4996549;28;20233;-83
2024/01/29 05:19:08;;;;;;;3.63;3.45;;;-1.00;99.90;;;;;;5007452;28;20191;-85
2024/01/29 05:21:36;;;;;;;3.95;3.58;;;-1.00;99.90;;;;;;4997305;28;20226;-83
2024/01/29 05:24:03;;;;;;;5.03;4.63;;;-1.10;99.90;;;;;;4981171;28;20202;-82
2024/01/29 05:26:30;;;;;;;2.88;2.75;;;-1.00;99.90;;;;;;4974658;28;20207;-82
2024/01/29 05:28:57;;;;;;;10.57;7.38;;;-1.00;99.90;;;;;;4978267;28;20246;-82
2024/01/29 05:31:24;;;;;;;13.10;6.15;;;-1.00;99.90;;;;;;4972667;28;20278;-83
2024/01/29 05:33:51;;;;;;;3.17;2.97;;;-1.00;99.90;;;;;;4972464;28;20218;-86
2024/01/29 05:36:18;;;;;;;3.42;3.20;;;-1.00;99.90;;;;;;4970922;28;20455;-82
2024/01/29 05:38:45;;;;;;;6.45;6.15;;;-1.10;99.90;;;;;;4976663;28;20298;-88
2024/01/29 05:41:12;;;;;;;5.38;3.05;;;-1.10;99.90;;;;;;4977101;28;20219;-84
2024/01/29 05:43:40;;;;;;;2.80;2.70;;;-1.10;99.90;;;;;;4969669;28;20254;-82
2024/01/29 05:46:06;;;;;;;9.70;4.22;;;-1.20;99.90;;;;;;4980345;28;20678;-81
2024/01/29 05:48:34;;;;;;;4.38;4.03;;;-1.20;99.90;;;;;;4973852;28;20226;-82
2024/01/29 05:51:01;;;;;;;6.43;4.63;;;-1.00;99.90;;;;;;4980425;28;20549;-81
2024/01/29 05:53:28;;;;;;;14.73;6.32;;;-1.00;99.90;;;;;;4977939;28;20451;-82
2024/01/29 05:55:56;;;;;;;7.05;6.63;;;-1.20;99.90;;;;;;4983037;28;20271;-89
2024/01/29 05:58:24;;;;;;;3.72;3.53;;;-1.00;99.90;;;;;;4987711;28;20237;-82
2024/01/29 06:00:51;;;;;;;5.25;3.45;;;-1.00;99.90;;;;;;4975099;28;20352;-84
2024/01/29 06:03:19;;;;;;;3.33;3.15;;;-1.00;99.90;;;;;;4974912;28;20213;-82
2024/01/29 06:05:47;;;;;;;5.40;4.45;;;-0.80;99.90;;;;;;4974131;28;20263;-82
2024/01/29 06:08:14;;;;;;;5.60;5.07;;;-1.10;99.90;;;;;;4974226;28;20487;-86
2024/01/29 06:10:41;;;;;;;6.28;5.75;;;-1.20;99.90;;;;;;4969165;28;20210;-82
2024/01/29 06:13:08;;;;;;;6.95;4.68;;;-1.30;99.90;;;;;;4971291;28;20370;-84
2024/01/29 06:15:35;;;;;;;11.40;8.63;;;-1.30;99.90;;;;;;4968120;28;20246;-82
2024/01/29 06:18:04;;;;;;;5.00;4.03;;;-1.20;99.90;;;;;;4980106;28;20507;-83
2024/01/29 06:20:31;;;;;;;10.52;4.25;;;-1.20;99.90;;;;;;4967934;28;20215;-82
2024/01/29 06:22:58;;;;;;;4.20;4.00;;;-1.30;99.90;;;;;;4956965;28;20210;-81
2024/01/29 06:25:25;;;;;;;7.15;6.05;;;-1.30;99.90;;;;;;4972826;28;20203;-83
2024/01/29 06:27:54;;;;;;;6.75;6.18;;;-1.20;99.90;;;;;;4974965;28;20214;-84
2024/01/29 06:30:22;;;;;;;8.07;4.65;;;-1.30;99.90;;;;;;4987633;28;20211;-88
2024/01/29 06:32:48;;;;;;;5.38;5.07;;;-1.20;99.90;;;;;;4989477;28;20223;-84
2024/01/29 06:35:18;;;;;;;41.00;6.78;;;-1.10;99.90;;;;;;4968102;28;20187;-82
2024/01/29 06:37:45;;;;;;;4.65;4.38;;;-1.10;99.90;;;;;;4969413;28;20246;-83
2024/01/29 06:40:13;;;;;;;3.50;3.30;;;-1.10;99.90;;;;;;4978279;28;20310;-84
2024/01/29 06:42:40;;;;;;;4.43;3.97;;;-1.10;99.90;;;;;;4965183;28;20235;-82
2024/01/29 06:45:09;;;;;;;13.52;6.28;;;-1.20;99.90;;;;;;4990177;28;20235;-81
2024/01/29 06:47:36;;;;;;;7.45;4.85;;;-1.20;99.90;;;;;;4991875;28;20227;-84
2024/01/29 06:50:04;;;;;;;8.93;6.47;;;-1.20;99.90;;;;;;4986002;28;20206;-82
2024/01/29 06:52:31;;;;;;;6.72;6.25;;;-1.30;99.90;;;;;;4986117;28;20242;-82
2024/01/29 06:55:00;;;;;;;5.07;4.78;;;-1.20;99.90;;;;;;4970030;28;20576;-82
2024/01/29 06:57:27;;;;;;;6.38;5.97;;;-1.20;99.90;;;;;;4964819;28;20203;-82
2024/01/29 06:59:54;;;;;;;13.07;7.38;;;-1.30;99.90;;;;;;4972100;28;20437;-83
2024/01/29 07:02:22;;;;;;;19.25;5.60;;;-1.20;99.90;;;;;;4963941;28;20231;-81
2024/01/29 07:04:49;;;;;;;6.32;6.03;;;-1.20;99.90;;;;;;4972086;28;20223;-82
2024/01/29 07:07:16;;;;;;;31.23;6.03;;;-1.20;99.90;;;;;;4978160;28;20206;-83
2024/01/29 07:09:43;;;;;;;4.70;4.40;;;-1.20;99.90;;;;;;4979990;28;20276;-83
2024/01/29 07:12:14;;;;;;;7.57;4.88;;;-1.10;99.90;;;;;;4978239;28;20195;-82
2024/01/29 07:14:41;;;;;;;3.08;2.95;;;-1.10;99.90;;;;;;4974951;28;20259;-81
2024/01/29 07:17:12;;;;;;;3.80;3.60;;;-1.00;99.90;;;;;;4964619;28;20527;-82
2024/01/29 07:19:39;;;;;;;3.22;2.90;;;-1.10;99.90;;;;;;4972369;28;20254;-82
2024/01/29 07:22:08;;;;;;;3.33;3.22;;;-0.90;99.90;;;;;;4978807;28;20301;-83
2024/01/29 07:24:36;;;;;;;35.13;6.53;;;-1.00;99.90;;;;;;4953122;28;20211;-83
2024/01/29 07:27:04;;;;;;;10.32;9.52;;;-0.90;99.90;;;;;;4981793;28;20238;-80
2024/01/29 07:29:31;;;;;;;8.13;7.28;;;-0.80;99.90;;;;;;4972688;28;20239;-85
2024/01/29 07:31:58;;;;;;;2.67;2.58;;;-0.80;99.90;;;;;;4968521;28;20211;-84
2024/01/29 07:34:26;;;;;;;3.05;2.92;;;-0.70;99.90;;;;;;4966452;28;20252;-81
2024/01/29 07:36:53;;;;;;;4.38;3.97;;;-0.70;99.90;;;;;;4951374;28;20255;-80
2024/01/29 07:39:20;;;;;;;5.68;5.18;;;-0.60;99.90;;;;;;4966395;28;20226;-82
2024/01/29 07:41:47;;;;;;;2.20;2.10;;;0.40;99.90;;;;;;4974456;28;20565;-80
2024/01/29 07:44:15;;;;;;;3.25;3.00;;;1.50;99.90;;;;;;4969272;28;20207;-82
2024/01/29 07:46:42;;;;;;;30.60;7.03;;;2.80;99.90;;;;;;4969180;28;20210;-79
2024/01/29 07:49:10;;;;;;;5.82;5.18;;;3.00;99.90;;;;;;4973002;28;20433;-82
2024/01/29 07:51:40;;;;;;;2.33;2.22;;;3.70;99.90;;;;;;4962802;28;20214;-80
2024/01/29 07:54:08;;;;;;;7.55;7.03;;;5.20;99.90;;;;;;4949604;28;20199;-81
2024/01/29 07:56:35;;;;;;;4.75;4.45;;;5.70;99.90;;;;;;4962497;28;20512;-81
2024/01/29 07:59:03;;;;;;;1.95;1.85;;;5.50;99.90;;;;;;4955355;28;20380;-81
2024/01/29 08:01:29;;;;;;;2.83;2.67;;;4.80;99.90;;;;;;4976991;28;20226;-81
2024/01/29 08:03:57;;;;;;;2.92;2.83;;;5.50;99.90;;;;;;4965879;28;20213;-81
2024/01/29 08:06:24;;;;;;;3.42;2.53;;;5.80;99.90;;;;;;4950986;28;20494;-85
2024/01/29 08:08:51;;;;;;;3.78;3.58;;;6.40;99.90;;;;;;4947835;28;20218;-81
2024/01/29 08:11:18;;;;;;;1.55;1.52;;;6.50;99.90;;;;;;4963579;28;20476;-81
2024/01/29 08:13:45;;;;;;;5.10;4.80;;;6.10;99.90;;;;;;4968897;28;20425;-80
2024/01/29 08:16:12;;;;;;;3.03;2.83;;;3.40;99.90;;;;;;4971426;28;20215;-80
2024/01/29 08:18:39;;;;;;;8.52;7.38;;;1.90;99.90;;;;;;4979733;28;20217;-80
2024/01/29 08:21:06;;;;;;;1.95;1.85;;;1.40;99.90;;;;;;4961732;29;20215;-82
2024/01/29 08:23:33;;;;;;;1.50;1.50;;;1.20;99.90;;;;;;4979820;28;20415;-80
2024/01/29 08:26:00;;;;;;;1.80;1.75;;;1.20;99.90;;;;;;4969628;28;20282;-83
2024/01/29 08:28:27;;;;;;;3.50;2.65;;;1.10;99.90;;;;;;4970403;28;20242;-81
2024/01/29 08:30:58;;;;;;;4.03;3.33;;;1.10;99.90;;;;;;4962985;28;20223;-79
2024/01/29 08:33:28;;;;;;;4.05;3.85;;;1.20;99.90;;;;;;4975343;28;20211;-78
2024/01/29 08:35:55;;;;;;;3.28;2.60;;;1.30;99.90;;;;;;4969423;28;20504;-79
2024/01/29 08:38:24;;;;;;;4.43;4.07;;;1.40;99.90;;;;;;4962275;28;20245;-79
2024/01/29 08:40:51;;;;;;;7.45;4.35;;;1.40;99.90;;;;;;4976758;28;20306;-80
2024/01/29 08:43:18;;;;;;;1.90;1.60;;;1.40;99.90;;;;;;4967418;28;20229;-84
2024/01/29 08:45:45;;;;;;;11.13;4.95;;;1.60;99.90;;;;;;4977902;28;20611;-80
2024/01/29 08:48:12;;;;;;;4.53;2.70;;;1.60;99.90;;;;;;4967248;28;20416;-78
2024/01/29 08:50:39;;;;;;;2.28;2.17;;;1.80;99.90;;;;;;4978544;28;20529;-77
2024/01/29 08:53:07;;;;;;;3.10;2.95;;;1.70;99.90;;;;;;4959224;28;20258;-78
2024/01/29 08:55:34;;;;;;;4.80;4.53;;;1.80;99.90;;;;;;4968723;28;20274;-80
2024/01/29 08:58:01;;;;;;;9.88;3.63;;;2.80;99.90;;;;;;4946954;28;20243;-79
2024/01/29 09:00:28;;;;;;;4.32;4.03;;;5.30;99.90;;;;;;4968896;28;20278;-78
2024/01/29 09:02:55;;;;;;;1.35;1.35;;;6.10;99.90;;;;;;4966863;28;20229;-80
2024/01/29 09:05:23;;;;;;;1.42;1.33;;;6.10;99.90;;;;;;4976711;28;20211;-80
2024/01/29 09:07:50;;;;;;;2.63;2.53;;;6.70;99.90;;;;;;4973755;28;20534;-79
2024/01/29 09:10:17;;;;;;;0.95;0.95;;;6.40;99.90;;;;;;4963455;28;20257;-81
2024/01/29 09:12:44;;;;;;;1.10;1.10;;;6.90;99.90;;;;;;4981654;28;20218;-79
2024/01/29 09:15:11;;;;;;;2.55;2.45;;;7.00;99.90;;;;;;4983722;28;20247;-78
2024/01/29 09:17:39;;;;;;;2.38;2.28;;;5.50;99.90;;;;;;4981351;28;20255;-81
2024/01/29 09:20:09;;;;;;;2.13;2.03;;;4.00;99.90;;;;;;4969043;28;20588;-80
2024/01/29 09:22:36;;;;;;;3.00;2.90;;;3.40;99.90;;;;;;4975488;28;20277;-80
2024/01/29 09:25:04;;;;;;;2.22;1.98;;;3.40;99.90;;;;;;4966081;28;20259;-83
2024/01/29 09:27:31;;;;;;;9.25;4.43;;;3.40;99.90;;;;;;4973175;28;20209;-79
2024/01/29 09:29:58;;;;;;;4.25;3.97;;;3.30;99.90;;;;;;4949965;28;20295;-78
2024/01/29 09:32:24;;;;;;;11.00;3.55;;;3.30;99.90;;;;;;4968553;28;20215;-78
2024/01/29 09:34:52;;;;;;;2.50;2.38;;;3.30;99.90;;;;;;4965942;28;20211;-81
2024/01/29 09:37:20;;;;;;;2.60;2.45;;;3.30;99.90;;;;;;4975623;28;20246;-80
2024/01/29 09:39:47;;;;;;;4.03;3.83;;;3.30;99.90;;;;;;4988432;28;20229;-80
2024/01/29 09:42:18;;;;;;;7.82;7.20;;;3.40;99.90;;;;;;4980899;28;20225;-79
2024/01/29 09:44:48;;;;;;;2.97;2.78;;;3.50;99.90;;;;;;4966323;28;20227;-79
2024/01/29 09:47:15;;;;;;;6.88;6.38;;;3.60;99.90;;;;;;4971002;28;20227;-77
2024/01/29 09:49:45;;;;;;;3.33;3.22;;;3.70;99.90;;;;;;4950641;28;20229;-79
2024/01/29 09:52:13;;;;;;;2.08;1.85;;;3.80;99.90;;;;;;4982554;28;20217;-79
2024/01/29 09:54:41;;;;;;;2.35;2.25;;;3.90;99.90;;;;;;4970619;28;20202;-78
2024/01/29 09:57:11;;;;;;;1.83;1.80;;;4.00;99.90;;;;;;4972266;28;20226;-79
2024/01/29 09:59:40;;;;;;;2.90;2.80;;;4.10;99.90;;;;;;4962019;28;20211;-78
2024/01/29 10:02:08;;;;;;;3.83;3.63;;;4.10;99.90;;;;;;4976906;28;20222;-79
2024/01/29 10:04:36;;;;;;;2.92;2.83;;;4.10;99.90;;;;;;4982505;28;20267;-80
2024/01/29 10:07:03;;;;;;;4.43;3.80;;;4.20;99.90;;;;;;4983416;28;20192;-80
2024/01/29 10:09:30;;;;;;;2.63;2.42;;;4.40;99.90;;;;;;4989832;28;20412;-76
2024/01/29 10:11:57;;;;;;;2.60;2.50;;;4.40;99.90;;;;;;4982713;28;20275;-77
2024/01/29 10:14:27;;;;;;;4.10;1.80;;;4.50;99.90;;;;;;4973373;28;20211;-78
2024/01/29 10:16:55;;;;;;;1.60;1.50;;;4.50;99.90;;;;;;4975317;28;20203;-78
2024/01/29 10:19:23;;;;;;;6.75;6.10;;;4.30;99.90;;;;;;4976848;28;20391;-77
2024/01/29 10:21:50;;;;;;;2.80;1.60;;;4.50;99.90;;;;;;4981953;28;20249;-79
2024/01/29 10:24:17;;;;;;;1.00;1.00;;;4.60;99.90;;;;;;4971898;28;20208;-79
2024/01/29 10:26:45;;;;;;;1.73;1.73;;;4.60;99.90;;;;;;4970411;28;20279;-77
2024/01/29 10:29:15;;;;;;;4.68;4.28;;;4.70;99.90;;;;;;4974101;28;20436;-80
2024/01/29 10:31:43;;;;;;;1.30;1.30;;;4.80;99.90;;;;;;4973782;28;20203;-79
2024/01/29 10:34:10;;;;;;;3.50;3.22;;;4.80;99.90;;;;;;4973924;28;20230;-78
2024/01/29 10:36:40;;;;;;;3.60;1.98;;;4.90;99.90;;;;;;4974072;28;20215;-78
2024/01/29 10:39:08;;;;;;;0.77;0.77;;;5.10;99.90;;;;;;4959540;28;20563;-79
2024/01/29 10:41:36;;;;;;;2.75;2.60;;;5.10;99.90;;;;;;4954382;28;20215;-79
2024/01/29 10:44:04;;;;;;;0.90;0.90;;;5.10;99.90;;;;;;4963266;28;20218;-79
2024/01/29 10:46:38;;;;;;;4.65;3.92;;;5.30;99.90;;;;;;4962963;28;20235;-79
2024/01/29 10:49:06;;;;;;;2.95;2.85;;;5.30;99.90;;;;;;4968267;28;20209;-80
2024/01/29 10:51:34;;;;;;;0.70;0.70;;;5.50;99.90;;;;;;4975890;28;20216;-79
2024/01/29 10:54:02;;;;;;;3.70;3.42;;;5.80;99.90;;;;;;4961002;28;20397;-79
2024/01/29 10:56:30;;;;;;;0.90;0.90;;;5.90;99.90;;;;;;4981607;28;20246;-78
2024/01/29 10:58:59;;;;;;;1.50;1.40;;;5.90;99.90;;;;;;4964614;28;20210;-80
2024/01/29 11:01:31;;;;;;;1.05;1.05;;;6.10;99.90;;;;;;4946879;28;20221;-83
2024/01/29 11:04:00;;;;;;;8.40;1.10;;;6.20;99.90;;;;;;4966989;28;20237;-79
2024/01/29 11:06:33;;;;;;;1.70;1.60;;;6.10;99.90;;;;;;4970091;28;20221;-78
2024/01/29 11:09:08;;;;;;;0.60;0.60;;;6.40;99.90;;;;;;4976234;28;20234;-79
2024/01/29 11:11:37;;;;;;;4.72;4.43;;;6.30;99.90;;;;;;4968025;28;20221;-80
2024/01/29 11:14:04;;;;;;;2.88;1.42;;;6.40;99.90;;;;;;4972442;28;20592;-78
2024/01/29 11:16:31;;;;;;;0.75;0.75;;;6.50;99.90;;;;;;4966025;28;20577;-78
2024/01/29 11:18:59;;;;;;;0.50;0.50;;;6.40;99.90;;;;;;4980575;28;20427;-78
2024/01/29 11:21:27;;;;;;;4.63;3.47;;;6.30;99.90;;;;;;4980737;28;20206;-80
2024/01/29 11:23:57;;;;;;;0.80;0.80;;;6.60;99.90;;;;;;4971061;28;20230;-79
2024/01/29 11:26:28;;;;;;;0.90;0.90;;;6.50;99.90;;;;;;4956217;28;20410;-79
2024/01/29 11:28:56;;;;;;;1.65;1.65;;;6.40;99.90;;;;;;4972038;28;20211;-79
2024/01/29 11:31:24;;;;;;;1.52;0.90;;;6.40;99.90;;;;;;4964301;28;20258;-78
2024/01/29 11:34:03;;;;;;;2.15;2.05;;;6.70;99.90;;;;;;4961685;28;20207;-76
2024/01/29 11:36:30;;;;;;;0.80;0.80;;;6.70;99.90;;;;;;4970784;28;20241;-82
2024/01/29 11:39:14;;;;;;;0.75;0.75;;;6.70;99.90;;;;;;4967115;28;20557;-80
2024/01/29 11:41:48;;;;;;;1.05;1.05;;;6.90;99.90;;;;;;4954948;28;20400;-79
2024/01/29 11:44:18;;;;;;;1.95;1.83;;;6.90;99.90;;;;;;4954921;28;20198;-78
2024/01/29 11:46:45;;;;;;;6.32;1.73;;;6.90;99.90;;;;;;4973282;28;20235;-78
2024/01/29 11:49:21;;;;;;;0.60;0.60;;;6.80;99.90;;;;;;4973506;28;20203;-79
2024/01/29 11:51:48;;;;;;;1.02;1.02;;;7.20;99.90;;;;;;4952044;28;20241;-81
2024/01/29 11:54:15;;;;;;;0.50;0.50;;;7.20;99.90;;;;;;4969417;28;20207;-79
2024/01/29 11:56:43;;;;;;;0.50;0.50;;;7.30;99.90;;;;;;4968916;28;20252;-78
2024/01/29 11:59:11;;;;;;;0.57;0.57;;;7.60;99.90;;;;;;4970365;28;20238;-78
2024/01/29 12:01:38;;;;;;;0.85;0.85;;;7.50;99.90;;;;;;4974580;28;20238;-78
2024/01/29 12:04:11;;;;;;;1.23;1.13;;;7.40;99.90;;;;;;4978018;28;20348;-80
2024/01/29 12:06:38;;;;;;;1.10;1.00;;;7.40;99.90;;;;;;4974142;28;20431;-79
2024/01/29 12:09:10;;;;;;;0.65;0.65;;;7.20;99.90;;;;;;4967047;28;20231;-79
2024/01/29 12:11:37;;;;;;;1.38;1.27;;;7.40;99.90;;;;;;4975075;28;20622;-79
2024/01/29 12:14:07;;;;;;;0.50;0.50;;;7.80;99.90;;;;;;4972623;28;20219;-79
2024/01/29 12:16:35;;;;;;;4.40;3.28;;;8.00;99.90;;;;;;4967942;28;20234;-77
2024/01/29 12:19:02;;;;;;;1.40;1.30;;;7.80;99.90;;;;;;4969887;28;20233;-77
2024/01/29 12:21:29;;;;;;;0.60;0.60;;;7.90;99.90;;;;;;4975170;28;20538;-79
2024/01/29 12:23:56;;;;;;;1.00;1.00;;;7.80;99.90;;;;;;4977087;28;20241;-79
2024/01/29 12:26:27;;;;;;;0.60;0.60;;;8.00;99.90;;;;;;4970730;28;20561;-79
2024/01/29 12:28:58;;;;;;;0.90;0.90;;;8.00;99.90;;;;;;4956036;28;20261;-79
2024/01/29 12:31:26;;;;;;;0.60;0.60;;;7.70;99.90;;;;;;4958154;28;20239;-77
2024/01/29 12:33:53;;;;;;;0.70;0.70;;;8.00;99.90;;;;;;4958628;28;20567;-79
2024/01/29 12:36:21;;;;;;;0.60;0.60;;;8.20;99.90;;;;;;4975403;28;20214;-78
2024/01/29 12:38:58;;;;;;;0.60;0.60;;;8.30;99.90;;;;;;4946533;28;20305;-76
2024/01/29 12:41:33;;;;;;;2.25;2.15;;;8.00;99.90;;;;;;4970423;28;20421;-79
2024/01/29 12:44:10;;;;;;;0.70;0.70;;;8.20;99.90;;;;;;4957511;28;20426;-79
2024/01/29 12:46:37;;;;;;;3.55;3.35;;;8.40;99.90;;;;;;4961171;28;20211;-80
2024/01/29 12:49:07;;;;;;;0.50;0.50;;;8.30;99.90;;;;;;4977721;28;20247;-78
2024/01/29 12:51:34;;;;;;;1.75;1.65;;;8.10;99.90;;;;;;4966804;28;20476;-77
2024/01/29 12:54:02;;;;;;;1.00;1.00;;;7.90;99.90;;;;;;4962354;28;20266;-78